sensor_id;sensor_type;location;lat;lon;timestamp;P1;durP1;ratioP1;P2;durP2;ratioP2
20417;SDS011;10368;51.436;6.774;2022-07-23T00:00:19;8.88;;;5.68;;
20417;SDS011;10368;51.436;6.774;2022-07-23T00:02:46;9.40;;;6.18;;
20417;SDS011;10368;51.436;6.774;2022-07-23T00:05:14;8.25;;;6.10;;
20417;SDS011;10368;51.436;6.774;2022-07-23T00:07:41;7.45;;;5.43;;
20417;SDS011;10368;51.436;6.774;2022-07-23T00:10:08;8.98;;;6.63;;
20417;SDS011;10368;51.436;6.774;2022-07-23T00:12:36;6.78;;;5.97;;
20417;SDS011;10368;51.436;6.774;2022-07-23T00:15:17;11.73;;;7.50;;
20417;SDS011;10368;51.436;6.774;2022-07-23T00:17:45;9.07;;;6.88;;
20417;SDS011;10368;51.436;6.774;2022-07-23T00:20:12;8.00;;;6.05;;
20417;SDS011;10368;51.436;6.774;2022-07-23T00:22:49;11.02;;;7.05;;
20417;SDS011;10368;51.436;6.774;2022-07-23T00:25:18;9.68;;;7.55;;
20417;SDS011;10368;51.436;6.774;2022-07-23T00:27:55;11.82;;;7.95;;
20417;SDS011;10368;51.436;6.774;2022-07-23T00:30:23;10.18;;;6.25;;
20417;SDS011;10368;51.436;6.774;2022-07-23T00:32:55;7.18;;;6.13;;
20417;SDS011;10368;51.436;6.774;2022-07-23T00:35:27;12.35;;;7.57;;
20417;SDS011;10368;51.436;6.774;2022-07-23T00:37:56;8.13;;;6.50;;
20417;SDS011;10368;51.436;6.774;2022-07-23T00:40:23;8.52;;;6.10;;
20417;SDS011;10368;51.436;6.774;2022-07-23T00:42:51;10.80;;;7.20;;
20417;SDS011;10368;51.436;6.774;2022-07-23T00:45:18;8.55;;;6.82;;
20417;SDS011;10368;51.436;6.774;2022-07-23T00:47:46;9.90;;;6.57;;
20417;SDS011;10368;51.436;6.774;2022-07-23T00:50:13;9.95;;;6.65;;
20417;SDS011;10368;51.436;6.774;2022-07-23T00:52:40;7.47;;;6.10;;
20417;SDS011;10368;51.436;6.774;2022-07-23T00:55:08;9.38;;;7.95;;
20417;SDS011;10368;51.436;6.774;2022-07-23T00:57:36;10.40;;;6.78;;
20417;SDS011;10368;51.436;6.774;2022-07-23T01:00:05;7.07;;;6.13;;
20417;SDS011;10368;51.436;6.774;2022-07-23T01:02:34;9.05;;;6.05;;
20417;SDS011;10368;51.436;6.774;2022-07-23T01:05:01;9.70;;;6.93;;
20417;SDS011;10368;51.436;6.774;2022-07-23T01:07:28;8.98;;;6.63;;
20417;SDS011;10368;51.436;6.774;2022-07-23T01:09:56;8.27;;;6.20;;
20417;SDS011;10368;51.436;6.774;2022-07-23T01:12:23;9.18;;;6.93;;
20417;SDS011;10368;51.436;6.774;2022-07-23T01:14:58;9.85;;;6.80;;
20417;SDS011;10368;51.436;6.774;2022-07-23T01:17:26;25.92;;;13.40;;
20417;SDS011;10368;51.436;6.774;2022-07-23T01:19:54;9.52;;;8.20;;
20417;SDS011;10368;51.436;6.774;2022-07-23T01:22:21;8.48;;;6.85;;
20417;SDS011;10368;51.436;6.774;2022-07-23T01:24:48;8.45;;;7.25;;
20417;SDS011;10368;51.436;6.774;2022-07-23T01:27:15;11.43;;;7.43;;
20417;SDS011;10368;51.436;6.774;2022-07-23T01:29:44;13.25;;;8.82;;
20417;SDS011;10368;51.436;6.774;2022-07-23T01:32:11;17.35;;;8.27;;
20417;SDS011;10368;51.436;6.774;2022-07-23T01:34:38;10.07;;;8.20;;
20417;SDS011;10368;51.436;6.774;2022-07-23T01:37:07;9.65;;;8.32;;
20417;SDS011;10368;51.436;6.774;2022-07-23T01:39:34;10.48;;;8.05;;
20417;SDS011;10368;51.436;6.774;2022-07-23T01:42:01;10.98;;;8.90;;
20417;SDS011;10368;51.436;6.774;2022-07-23T01:44:28;11.73;;;8.30;;
20417;SDS011;10368;51.436;6.774;2022-07-23T01:46:55;10.77;;;8.45;;
20417;SDS011;10368;51.436;6.774;2022-07-23T01:49:23;10.35;;;7.57;;
20417;SDS011;10368;51.436;6.774;2022-07-23T01:51:50;7.57;;;6.82;;
20417;SDS011;10368;51.436;6.774;2022-07-23T01:54:29;10.40;;;8.50;;
20417;SDS011;10368;51.436;6.774;2022-07-23T01:56:59;11.43;;;8.35;;
20417;SDS011;10368;51.436;6.774;2022-07-23T01:59:27;9.27;;;8.10;;
20417;SDS011;10368;51.436;6.774;2022-07-23T02:01:54;11.38;;;8.57;;
20417;SDS011;10368;51.436;6.774;2022-07-23T02:04:22;14.88;;;10.25;;
20417;SDS011;10368;51.436;6.774;2022-07-23T02:06:49;13.20;;;9.20;;
20417;SDS011;10368;51.436;6.774;2022-07-23T02:09:17;9.15;;;7.53;;
20417;SDS011;10368;51.436;6.774;2022-07-23T02:11:44;17.35;;;13.65;;
20417;SDS011;10368;51.436;6.774;2022-07-23T02:14:12;18.20;;;9.13;;
20417;SDS011;10368;51.436;6.774;2022-07-23T02:16:39;9.57;;;7.82;;
20417;SDS011;10368;51.436;6.774;2022-07-23T02:19:06;14.02;;;7.80;;
20417;SDS011;10368;51.436;6.774;2022-07-23T02:21:34;10.05;;;7.18;;
20417;SDS011;10368;51.436;6.774;2022-07-23T02:24:02;8.38;;;6.68;;
20417;SDS011;10368;51.436;6.774;2022-07-23T02:26:29;13.27;;;8.07;;
20417;SDS011;10368;51.436;6.774;2022-07-23T02:28:58;9.52;;;6.97;;
20417;SDS011;10368;51.436;6.774;2022-07-23T02:31:26;10.63;;;8.40;;
20417;SDS011;10368;51.436;6.774;2022-07-23T02:33:53;9.23;;;7.72;;
20417;SDS011;10368;51.436;6.774;2022-07-23T02:36:21;10.98;;;8.00;;
20417;SDS011;10368;51.436;6.774;2022-07-23T02:38:49;11.77;;;8.88;;
20417;SDS011;10368;51.436;6.774;2022-07-23T02:41:16;16.00;;;8.95;;
20417;SDS011;10368;51.436;6.774;2022-07-23T02:43:43;9.18;;;8.07;;
20417;SDS011;10368;51.436;6.774;2022-07-23T02:46:11;10.43;;;8.45;;
20417;SDS011;10368;51.436;6.774;2022-07-23T02:48:38;7.82;;;7.03;;
20417;SDS011;10368;51.436;6.774;2022-07-23T02:51:06;9.93;;;8.35;;
20417;SDS011;10368;51.436;6.774;2022-07-23T02:53:40;10.20;;;8.38;;
20417;SDS011;10368;51.436;6.774;2022-07-23T02:56:07;14.15;;;9.10;;
20417;SDS011;10368;51.436;6.774;2022-07-23T02:58:35;12.27;;;8.38;;
20417;SDS011;10368;51.436;6.774;2022-07-23T03:01:02;14.43;;;11.75;;
20417;SDS011;10368;51.436;6.774;2022-07-23T03:03:30;9.50;;;8.50;;
20417;SDS011;10368;51.436;6.774;2022-07-23T03:05:57;11.05;;;8.65;;
20417;SDS011;10368;51.436;6.774;2022-07-23T03:08:24;15.55;;;9.05;;
20417;SDS011;10368;51.436;6.774;2022-07-23T03:10:52;11.60;;;8.98;;
20417;SDS011;10368;51.436;6.774;2022-07-23T03:13:19;12.18;;;8.73;;
20417;SDS011;10368;51.436;6.774;2022-07-23T03:15:46;10.18;;;8.35;;
20417;SDS011;10368;51.436;6.774;2022-07-23T03:18:14;9.70;;;8.70;;
20417;SDS011;10368;51.436;6.774;2022-07-23T03:20:41;9.38;;;8.45;;
20417;SDS011;10368;51.436;6.774;2022-07-23T03:23:09;9.45;;;8.20;;
20417;SDS011;10368;51.436;6.774;2022-07-23T03:25:36;11.15;;;9.88;;
20417;SDS011;10368;51.436;6.774;2022-07-23T03:28:03;10.73;;;8.68;;
20417;SDS011;10368;51.436;6.774;2022-07-23T03:30:31;10.88;;;9.23;;
20417;SDS011;10368;51.436;6.774;2022-07-23T03:32:58;10.05;;;8.70;;
20417;SDS011;10368;51.436;6.774;2022-07-23T03:35:26;10.68;;;9.68;;
20417;SDS011;10368;51.436;6.774;2022-07-23T03:37:53;13.35;;;9.63;;
20417;SDS011;10368;51.436;6.774;2022-07-23T03:40:21;11.52;;;10.27;;
20417;SDS011;10368;51.436;6.774;2022-07-23T03:42:48;10.55;;;9.43;;
20417;SDS011;10368;51.436;6.774;2022-07-23T03:45:15;11.52;;;10.32;;
20417;SDS011;10368;51.436;6.774;2022-07-23T03:47:43;12.52;;;9.18;;
20417;SDS011;10368;51.436;6.774;2022-07-23T03:50:10;10.25;;;9.13;;
20417;SDS011;10368;51.436;6.774;2022-07-23T03:52:38;9.60;;;8.65;;
20417;SDS011;10368;51.436;6.774;2022-07-23T03:55:05;16.73;;;9.05;;
20417;SDS011;10368;51.436;6.774;2022-07-23T03:57:33;11.25;;;10.05;;
20417;SDS011;10368;51.436;6.774;2022-07-23T04:00:00;10.10;;;8.73;;
20417;SDS011;10368;51.436;6.774;2022-07-23T04:02:28;11.88;;;9.68;;
20417;SDS011;10368;51.436;6.774;2022-07-23T04:04:55;12.98;;;9.63;;
20417;SDS011;10368;51.436;6.774;2022-07-23T04:07:22;12.10;;;9.18;;
20417;SDS011;10368;51.436;6.774;2022-07-23T04:09:50;10.90;;;8.40;;
20417;SDS011;10368;51.436;6.774;2022-07-23T04:12:17;9.40;;;8.50;;
20417;SDS011;10368;51.436;6.774;2022-07-23T04:14:45;15.20;;;9.65;;
20417;SDS011;10368;51.436;6.774;2022-07-23T04:17:12;9.43;;;8.40;;
20417;SDS011;10368;51.436;6.774;2022-07-23T04:19:39;11.20;;;10.10;;
20417;SDS011;10368;51.436;6.774;2022-07-23T04:22:10;12.73;;;8.63;;
20417;SDS011;10368;51.436;6.774;2022-07-23T04:24:37;11.30;;;10.18;;
20417;SDS011;10368;51.436;6.774;2022-07-23T04:27:05;11.40;;;10.20;;
20417;SDS011;10368;51.436;6.774;2022-07-23T04:29:32;22.63;;;14.23;;
20417;SDS011;10368;51.436;6.774;2022-07-23T04:32:00;19.85;;;12.32;;
20417;SDS011;10368;51.436;6.774;2022-07-23T04:34:27;13.60;;;11.02;;
20417;SDS011;10368;51.436;6.774;2022-07-23T04:36:55;11.80;;;10.60;;
20417;SDS011;10368;51.436;6.774;2022-07-23T04:39:22;11.40;;;10.25;;
20417;SDS011;10368;51.436;6.774;2022-07-23T04:41:49;13.23;;;10.55;;
20417;SDS011;10368;51.436;6.774;2022-07-23T04:44:17;12.35;;;10.52;;
20417;SDS011;10368;51.436;6.774;2022-07-23T04:46:44;13.00;;;11.15;;
20417;SDS011;10368;51.436;6.774;2022-07-23T04:49:12;11.40;;;10.25;;
20417;SDS011;10368;51.436;6.774;2022-07-23T04:51:39;11.52;;;10.00;;
20417;SDS011;10368;51.436;6.774;2022-07-23T04:54:06;13.90;;;10.85;;
20417;SDS011;10368;51.436;6.774;2022-07-23T04:56:33;17.15;;;11.73;;
20417;SDS011;10368;51.436;6.774;2022-07-23T04:59:00;14.02;;;12.25;;
20417;SDS011;10368;51.436;6.774;2022-07-23T05:01:28;13.07;;;9.98;;
20417;SDS011;10368;51.436;6.774;2022-07-23T05:03:55;13.00;;;11.38;;
20417;SDS011;10368;51.436;6.774;2022-07-23T05:06:22;11.52;;;9.35;;
20417;SDS011;10368;51.436;6.774;2022-07-23T05:08:49;10.85;;;9.85;;
20417;SDS011;10368;51.436;6.774;2022-07-23T05:11:16;15.30;;;11.80;;
20417;SDS011;10368;51.436;6.774;2022-07-23T05:13:43;14.18;;;9.18;;
20417;SDS011;10368;51.436;6.774;2022-07-23T05:16:10;11.98;;;10.52;;
20417;SDS011;10368;51.436;6.774;2022-07-23T05:18:37;12.55;;;10.60;;
20417;SDS011;10368;51.436;6.774;2022-07-23T05:21:04;14.82;;;11.27;;
20417;SDS011;10368;51.436;6.774;2022-07-23T05:23:31;16.05;;;10.75;;
20417;SDS011;10368;51.436;6.774;2022-07-23T05:25:58;10.90;;;9.27;;
20417;SDS011;10368;51.436;6.774;2022-07-23T05:28:26;15.63;;;13.10;;
20417;SDS011;10368;51.436;6.774;2022-07-23T05:30:53;13.73;;;12.10;;
20417;SDS011;10368;51.436;6.774;2022-07-23T05:33:20;12.38;;;11.07;;
20417;SDS011;10368;51.436;6.774;2022-07-23T05:35:47;20.95;;;11.05;;
20417;SDS011;10368;51.436;6.774;2022-07-23T05:38:14;14.18;;;10.68;;
20417;SDS011;10368;51.436;6.774;2022-07-23T05:40:41;14.35;;;11.68;;
20417;SDS011;10368;51.436;6.774;2022-07-23T05:43:08;13.65;;;10.20;;
20417;SDS011;10368;51.436;6.774;2022-07-23T05:45:35;11.57;;;10.13;;
20417;SDS011;10368;51.436;6.774;2022-07-23T05:48:02;14.43;;;11.13;;
20417;SDS011;10368;51.436;6.774;2022-07-23T05:50:29;12.98;;;10.90;;
20417;SDS011;10368;51.436;6.774;2022-07-23T05:52:56;15.00;;;11.65;;
20417;SDS011;10368;51.436;6.774;2022-07-23T05:55:23;13.10;;;11.05;;
20417;SDS011;10368;51.436;6.774;2022-07-23T05:57:50;15.30;;;11.43;;
20417;SDS011;10368;51.436;6.774;2022-07-23T06:00:17;13.05;;;11.10;;
20417;SDS011;10368;51.436;6.774;2022-07-23T06:02:44;13.00;;;11.40;;
20417;SDS011;10368;51.436;6.774;2022-07-23T06:05:18;14.88;;;13.07;;
20417;SDS011;10368;51.436;6.774;2022-07-23T06:07:46;14.18;;;11.60;;
20417;SDS011;10368;51.436;6.774;2022-07-23T06:10:13;12.55;;;11.32;;
20417;SDS011;10368;51.436;6.774;2022-07-23T06:12:40;16.65;;;12.48;;
20417;SDS011;10368;51.436;6.774;2022-07-23T06:15:08;15.05;;;11.63;;
20417;SDS011;10368;51.436;6.774;2022-07-23T06:17:37;13.77;;;11.65;;
20417;SDS011;10368;51.436;6.774;2022-07-23T06:20:08;14.20;;;10.95;;
20417;SDS011;10368;51.436;6.774;2022-07-23T06:22:36;13.73;;;11.88;;
20417;SDS011;10368;51.436;6.774;2022-07-23T06:25:03;15.45;;;12.93;;
20417;SDS011;10368;51.436;6.774;2022-07-23T06:27:37;16.50;;;14.05;;
20417;SDS011;10368;51.436;6.774;2022-07-23T06:30:04;17.30;;;14.52;;
20417;SDS011;10368;51.436;6.774;2022-07-23T06:32:34;20.65;;;16.20;;
20417;SDS011;10368;51.436;6.774;2022-07-23T06:35:01;18.00;;;14.30;;
20417;SDS011;10368;51.436;6.774;2022-07-23T06:37:28;17.85;;;14.77;;
20417;SDS011;10368;51.436;6.774;2022-07-23T06:39:55;20.90;;;16.50;;
20417;SDS011;10368;51.436;6.774;2022-07-23T06:42:22;21.20;;;15.98;;
20417;SDS011;10368;51.436;6.774;2022-07-23T06:44:49;17.13;;;14.52;;
20417;SDS011;10368;51.436;6.774;2022-07-23T06:47:16;33.97;;;20.02;;
20417;SDS011;10368;51.436;6.774;2022-07-23T06:49:43;20.70;;;15.45;;
20417;SDS011;10368;51.436;6.774;2022-07-23T06:52:10;16.55;;;14.27;;
20417;SDS011;10368;51.436;6.774;2022-07-23T06:54:37;21.10;;;16.92;;
20417;SDS011;10368;51.436;6.774;2022-07-23T06:57:04;20.52;;;14.75;;
20417;SDS011;10368;51.436;6.774;2022-07-23T06:59:32;18.52;;;16.63;;
20417;SDS011;10368;51.436;6.774;2022-07-23T07:01:59;27.38;;;16.88;;
20417;SDS011;10368;51.436;6.774;2022-07-23T07:04:26;23.80;;;16.67;;
20417;SDS011;10368;51.436;6.774;2022-07-23T07:06:53;16.55;;;13.35;;
20417;SDS011;10368;51.436;6.774;2022-07-23T07:09:20;16.40;;;14.45;;
20417;SDS011;10368;51.436;6.774;2022-07-23T07:11:48;16.58;;;12.95;;
20417;SDS011;10368;51.436;6.774;2022-07-23T07:14:15;17.33;;;13.27;;
20417;SDS011;10368;51.436;6.774;2022-07-23T07:16:42;23.65;;;18.90;;
20417;SDS011;10368;51.436;6.774;2022-07-23T07:19:09;20.90;;;15.25;;
20417;SDS011;10368;51.436;6.774;2022-07-23T07:21:36;20.98;;;15.23;;
20417;SDS011;10368;51.436;6.774;2022-07-23T07:24:03;22.65;;;17.52;;
20417;SDS011;10368;51.436;6.774;2022-07-23T07:26:30;23.20;;;18.80;;
20417;SDS011;10368;51.436;6.774;2022-07-23T07:28:58;21.55;;;16.08;;
20417;SDS011;10368;51.436;6.774;2022-07-23T07:31:25;22.70;;;16.23;;
20417;SDS011;10368;51.436;6.774;2022-07-23T07:33:52;28.73;;;15.82;;
20417;SDS011;10368;51.436;6.774;2022-07-23T07:36:20;30.02;;;21.25;;
20417;SDS011;10368;51.436;6.774;2022-07-23T07:38:47;36.85;;;25.23;;
20417;SDS011;10368;51.436;6.774;2022-07-23T07:41:15;29.15;;;21.00;;
20417;SDS011;10368;51.436;6.774;2022-07-23T07:43:42;32.55;;;21.58;;
20417;SDS011;10368;51.436;6.774;2022-07-23T07:46:09;27.52;;;17.38;;
20417;SDS011;10368;51.436;6.774;2022-07-23T07:48:37;26.27;;;16.48;;
20417;SDS011;10368;51.436;6.774;2022-07-23T07:51:04;24.45;;;16.88;;
20417;SDS011;10368;51.436;6.774;2022-07-23T07:53:32;30.40;;;23.38;;
20417;SDS011;10368;51.436;6.774;2022-07-23T07:55:59;20.08;;;16.63;;
20417;SDS011;10368;51.436;6.774;2022-07-23T07:58:26;16.75;;;14.40;;
20417;SDS011;10368;51.436;6.774;2022-07-23T08:00:53;18.23;;;12.80;;
20417;SDS011;10368;51.436;6.774;2022-07-23T08:03:20;13.25;;;10.85;;
20417;SDS011;10368;51.436;6.774;2022-07-23T08:05:47;11.15;;;9.75;;
20417;SDS011;10368;51.436;6.774;2022-07-23T08:08:14;12.98;;;10.45;;
20417;SDS011;10368;51.436;6.774;2022-07-23T08:10:42;13.27;;;9.43;;
20417;SDS011;10368;51.436;6.774;2022-07-23T08:13:12;12.13;;;8.73;;
20417;SDS011;10368;51.436;6.774;2022-07-23T08:15:41;12.27;;;9.90;;
20417;SDS011;10368;51.436;6.774;2022-07-23T08:18:09;17.40;;;9.75;;
20417;SDS011;10368;51.436;6.774;2022-07-23T08:20:36;14.85;;;8.40;;
20417;SDS011;10368;51.436;6.774;2022-07-23T08:23:04;12.93;;;7.32;;
20417;SDS011;10368;51.436;6.774;2022-07-23T08:25:40;8.75;;;6.20;;
20417;SDS011;10368;51.436;6.774;2022-07-23T08:28:09;8.60;;;5.95;;
20417;SDS011;10368;51.436;6.774;2022-07-23T08:30:37;9.45;;;5.35;;
20417;SDS011;10368;51.436;6.774;2022-07-23T08:33:06;8.52;;;5.35;;
20417;SDS011;10368;51.436;6.774;2022-07-23T08:35:57;5.97;;;4.63;;
20417;SDS011;10368;51.436;6.774;2022-07-23T08:38:25;13.35;;;6.28;;
20417;SDS011;10368;51.436;6.774;2022-07-23T08:40:53;7.68;;;6.80;;
20417;SDS011;10368;51.436;6.774;2022-07-23T08:43:22;9.20;;;6.57;;
20417;SDS011;10368;51.436;6.774;2022-07-23T08:45:52;8.45;;;5.95;;
20417;SDS011;10368;51.436;6.774;2022-07-23T08:48:23;9.88;;;5.93;;
20417;SDS011;10368;51.436;6.774;2022-07-23T08:50:57;7.30;;;6.13;;
20417;SDS011;10368;51.436;6.774;2022-07-23T08:53:28;11.00;;;6.03;;
20417;SDS011;10368;51.436;6.774;2022-07-23T08:55:56;8.13;;;6.72;;
20417;SDS011;10368;51.436;6.774;2022-07-23T08:58:28;11.35;;;8.25;;
20417;SDS011;10368;51.436;6.774;2022-07-23T09:00:55;10.63;;;7.45;;
20417;SDS011;10368;51.436;6.774;2022-07-23T09:03:27;9.18;;;6.88;;
20417;SDS011;10368;51.436;6.774;2022-07-23T09:05:56;12.75;;;7.28;;
20417;SDS011;10368;51.436;6.774;2022-07-23T09:08:27;10.52;;;6.97;;
20417;SDS011;10368;51.436;6.774;2022-07-23T09:11:04;7.65;;;5.10;;
20417;SDS011;10368;51.436;6.774;2022-07-23T09:13:37;6.93;;;6.13;;
20417;SDS011;10368;51.436;6.774;2022-07-23T09:16:13;13.65;;;7.95;;
20417;SDS011;10368;51.436;6.774;2022-07-23T09:18:50;12.65;;;7.32;;
20417;SDS011;10368;51.436;6.774;2022-07-23T09:26:39;4.28;;;3.92;;
20417;SDS011;10368;51.436;6.774;2022-07-23T09:36:49;7.25;;;5.65;;
20417;SDS011;10368;51.436;6.774;2022-07-23T09:39:28;6.53;;;4.35;;
20417;SDS011;10368;51.436;6.774;2022-07-23T09:41:57;5.28;;;3.78;;
20417;SDS011;10368;51.436;6.774;2022-07-23T09:44:45;9.20;;;3.80;;
20417;SDS011;10368;51.436;6.774;2022-07-23T09:47:13;6.35;;;3.47;;
20417;SDS011;10368;51.436;6.774;2022-07-23T09:49:42;3.70;;;3.40;;
20417;SDS011;10368;51.436;6.774;2022-07-23T09:52:28;7.13;;;4.43;;
20417;SDS011;10368;51.436;6.774;2022-07-23T09:55:03;3.55;;;3.03;;
20417;SDS011;10368;51.436;6.774;2022-07-23T09:57:32;4.88;;;2.90;;
20417;SDS011;10368;51.436;6.774;2022-07-23T10:00:03;6.15;;;3.03;;
20417;SDS011;10368;51.436;6.774;2022-07-23T10:02:33;4.22;;;2.85;;
20417;SDS011;10368;51.436;6.774;2022-07-23T10:05:03;4.28;;;3.10;;
20417;SDS011;10368;51.436;6.774;2022-07-23T10:07:32;3.85;;;2.90;;
20417;SDS011;10368;51.436;6.774;2022-07-23T10:10:01;3.42;;;2.95;;
20417;SDS011;10368;51.436;6.774;2022-07-23T10:12:29;5.07;;;3.17;;
20417;SDS011;10368;51.436;6.774;2022-07-23T10:14:57;4.68;;;3.90;;
20417;SDS011;10368;51.436;6.774;2022-07-23T10:17:30;4.38;;;2.88;;
20417;SDS011;10368;51.436;6.774;2022-07-23T10:19:57;4.75;;;3.00;;
20417;SDS011;10368;51.436;6.774;2022-07-23T10:22:25;4.45;;;2.80;;
20417;SDS011;10368;51.436;6.774;2022-07-23T10:36:46;5.68;;;3.20;;
20417;SDS011;10368;51.436;6.774;2022-07-23T10:39:24;4.45;;;2.65;;
20417;SDS011;10368;51.436;6.774;2022-07-23T10:42:11;3.88;;;2.10;;
20417;SDS011;10368;51.436;6.774;2022-07-23T10:44:41;4.40;;;3.03;;
20417;SDS011;10368;51.436;6.774;2022-07-23T10:47:10;3.85;;;3.10;;
20417;SDS011;10368;51.436;6.774;2022-07-23T10:49:44;3.60;;;1.98;;
20417;SDS011;10368;51.436;6.774;2022-07-23T10:52:15;7.70;;;2.75;;
20417;SDS011;10368;51.436;6.774;2022-07-23T10:57:28;3.47;;;2.22;;
20417;SDS011;10368;51.436;6.774;2022-07-23T11:02:34;4.32;;;2.90;;
20417;SDS011;10368;51.436;6.774;2022-07-23T11:05:06;4.15;;;3.50;;
20417;SDS011;10368;51.436;6.774;2022-07-23T11:08:10;3.33;;;1.77;;
20417;SDS011;10368;51.436;6.774;2022-07-23T11:24:08;5.68;;;2.83;;
20417;SDS011;10368;51.436;6.774;2022-07-23T11:31:57;2.97;;;2.15;;
20417;SDS011;10368;51.436;6.774;2022-07-23T11:34:32;3.95;;;1.80;;
20417;SDS011;10368;51.436;6.774;2022-07-23T11:37:00;4.13;;;2.45;;
20417;SDS011;10368;51.436;6.774;2022-07-23T11:39:28;7.00;;;2.58;;
20417;SDS011;10368;51.436;6.774;2022-07-23T11:41:56;3.45;;;2.33;;
20417;SDS011;10368;51.436;6.774;2022-07-23T11:44:42;1.98;;;1.50;;
20417;SDS011;10368;51.436;6.774;2022-07-23T11:47:14;1.95;;;1.83;;
20417;SDS011;10368;51.436;6.774;2022-07-23T11:49:52;3.03;;;2.30;;
20417;SDS011;10368;51.436;6.774;2022-07-23T11:52:19;2.58;;;2.20;;
20417;SDS011;10368;51.436;6.774;2022-07-23T11:54:57;2.60;;;1.83;;
20417;SDS011;10368;51.436;6.774;2022-07-23T11:57:26;2.10;;;1.90;;
20417;SDS011;10368;51.436;6.774;2022-07-23T12:00:00;6.07;;;2.45;;
20417;SDS011;10368;51.436;6.774;2022-07-23T12:02:30;3.45;;;2.17;;
20417;SDS011;10368;51.436;6.774;2022-07-23T12:04:57;3.50;;;2.00;;
20417;SDS011;10368;51.436;6.774;2022-07-23T12:07:35;2.63;;;2.05;;
20417;SDS011;10368;51.436;6.774;2022-07-23T12:12:35;3.22;;;2.10;;
20417;SDS011;10368;51.436;6.774;2022-07-23T12:15:03;4.75;;;2.05;;
20417;SDS011;10368;51.436;6.774;2022-07-23T12:17:32;2.78;;;2.22;;
20417;SDS011;10368;51.436;6.774;2022-07-23T12:20:00;2.17;;;1.95;;
20417;SDS011;10368;51.436;6.774;2022-07-23T12:25:21;2.05;;;1.83;;
20417;SDS011;10368;51.436;6.774;2022-07-23T12:28:00;1.92;;;1.77;;
20417;SDS011;10368;51.436;6.774;2022-07-23T12:30:30;3.30;;;2.00;;
20417;SDS011;10368;51.436;6.774;2022-07-23T12:33:00;1.60;;;1.42;;
20417;SDS011;10368;51.436;6.774;2022-07-23T12:35:35;3.15;;;1.90;;
20417;SDS011;10368;51.436;6.774;2022-07-23T12:38:04;2.20;;;2.00;;
20417;SDS011;10368;51.436;6.774;2022-07-23T12:43:07;3.03;;;2.10;;
20417;SDS011;10368;51.436;6.774;2022-07-23T12:45:44;2.80;;;2.20;;
20417;SDS011;10368;51.436;6.774;2022-07-23T12:48:19;2.47;;;1.70;;
20417;SDS011;10368;51.436;6.774;2022-07-23T12:53:54;2.38;;;1.83;;
20417;SDS011;10368;51.436;6.774;2022-07-23T12:56:26;2.90;;;2.10;;
20417;SDS011;10368;51.436;6.774;2022-07-23T13:01:25;2.35;;;1.85;;
20417;SDS011;10368;51.436;6.774;2022-07-23T13:04:04;3.25;;;1.92;;
20417;SDS011;10368;51.436;6.774;2022-07-23T13:09:06;1.85;;;1.73;;
20417;SDS011;10368;51.436;6.774;2022-07-23T13:11:34;2.20;;;2.00;;
20417;SDS011;10368;51.436;6.774;2022-07-23T13:14:02;2.17;;;1.77;;
20417;SDS011;10368;51.436;6.774;2022-07-23T13:16:34;4.38;;;2.17;;
20417;SDS011;10368;51.436;6.774;2022-07-23T13:19:03;1.90;;;1.80;;
20417;SDS011;10368;51.436;6.774;2022-07-23T13:21:37;2.20;;;2.00;;
20417;SDS011;10368;51.436;6.774;2022-07-23T13:24:05;3.97;;;3.58;;
20417;SDS011;10368;51.436;6.774;2022-07-23T13:26:34;1.95;;;1.70;;
20417;SDS011;10368;51.436;6.774;2022-07-23T13:29:03;4.32;;;2.65;;
20417;SDS011;10368;51.436;6.774;2022-07-23T13:31:36;3.03;;;2.58;;
20417;SDS011;10368;51.436;6.774;2022-07-23T13:34:04;3.47;;;2.40;;
20417;SDS011;10368;51.436;6.774;2022-07-23T13:36:52;4.30;;;2.72;;
20417;SDS011;10368;51.436;6.774;2022-07-23T13:39:19;2.63;;;2.22;;
20417;SDS011;10368;51.436;6.774;2022-07-23T13:41:46;2.15;;;1.95;;
20417;SDS011;10368;51.436;6.774;2022-07-23T13:44:15;1.98;;;1.70;;
20417;SDS011;10368;51.436;6.774;2022-07-23T13:46:43;7.10;;;2.03;;
20417;SDS011;10368;51.436;6.774;2022-07-23T13:49:13;1.85;;;1.73;;
20417;SDS011;10368;51.436;6.774;2022-07-23T13:51:41;2.67;;;1.88;;
20417;SDS011;10368;51.436;6.774;2022-07-23T13:54:08;2.17;;;1.77;;
20417;SDS011;10368;51.436;6.774;2022-07-23T13:56:36;4.05;;;2.28;;
20417;SDS011;10368;51.436;6.774;2022-07-23T13:59:03;2.50;;;2.00;;
20417;SDS011;10368;51.436;6.774;2022-07-23T14:01:32;28.05;;;25.10;;
20417;SDS011;10368;51.436;6.774;2022-07-23T14:04:11;2.72;;;2.53;;
20417;SDS011;10368;51.436;6.774;2022-07-23T14:06:39;2.50;;;2.30;;
20417;SDS011;10368;51.436;6.774;2022-07-23T14:09:07;3.13;;;2.25;;
20417;SDS011;10368;51.436;6.774;2022-07-23T14:11:35;3.42;;;2.40;;
20417;SDS011;10368;51.436;6.774;2022-07-23T14:14:02;2.97;;;2.03;;
20417;SDS011;10368;51.436;6.774;2022-07-23T14:16:29;2.13;;;2.00;;
20417;SDS011;10368;51.436;6.774;2022-07-23T14:18:58;2.05;;;1.92;;
20417;SDS011;10368;51.436;6.774;2022-07-23T14:21:27;2.78;;;2.17;;
20417;SDS011;10368;51.436;6.774;2022-07-23T14:23:54;1.55;;;1.45;;
20417;SDS011;10368;51.436;6.774;2022-07-23T14:26:21;1.90;;;1.80;;
20417;SDS011;10368;51.436;6.774;2022-07-23T14:28:49;4.60;;;2.10;;
20417;SDS011;10368;51.436;6.774;2022-07-23T14:31:16;2.28;;;1.92;;
20417;SDS011;10368;51.436;6.774;2022-07-23T14:33:46;2.50;;;2.10;;
20417;SDS011;10368;51.436;6.774;2022-07-23T14:36:14;2.25;;;2.10;;
20417;SDS011;10368;51.436;6.774;2022-07-23T14:38:42;1.95;;;1.73;;
20417;SDS011;10368;51.436;6.774;2022-07-23T14:41:09;3.13;;;2.30;;
20417;SDS011;10368;51.436;6.774;2022-07-23T14:43:37;3.75;;;2.90;;
20417;SDS011;10368;51.436;6.774;2022-07-23T14:46:04;2.88;;;2.15;;
20417;SDS011;10368;51.436;6.774;2022-07-23T14:48:32;2.92;;;2.42;;
20417;SDS011;10368;51.436;6.774;2022-07-23T14:50:59;2.25;;;2.05;;
20417;SDS011;10368;51.436;6.774;2022-07-23T14:53:27;2.45;;;2.22;;
20417;SDS011;10368;51.436;6.774;2022-07-23T14:55:55;2.30;;;2.10;;
20417;SDS011;10368;51.436;6.774;2022-07-23T14:58:25;2.80;;;2.10;;
20417;SDS011;10368;51.436;6.774;2022-07-23T15:00:52;3.13;;;2.10;;
20417;SDS011;10368;51.436;6.774;2022-07-23T15:03:20;2.90;;;2.13;;
20417;SDS011;10368;51.436;6.774;2022-07-23T15:06:01;4.82;;;3.20;;
20417;SDS011;10368;51.436;6.774;2022-07-23T15:08:28;4.22;;;3.72;;
20417;SDS011;10368;51.436;6.774;2022-07-23T15:10:56;3.10;;;2.80;;
20417;SDS011;10368;51.436;6.774;2022-07-23T15:13:23;5.63;;;3.08;;
20417;SDS011;10368;51.436;6.774;2022-07-23T15:15:53;4.25;;;3.83;;
20417;SDS011;10368;51.436;6.774;2022-07-23T15:18:22;8.27;;;7.50;;
20417;SDS011;10368;51.436;6.774;2022-07-23T15:20:49;2.70;;;2.50;;
20417;SDS011;10368;51.436;6.774;2022-07-23T15:23:17;2.63;;;2.42;;
20417;SDS011;10368;51.436;6.774;2022-07-23T15:25:44;5.53;;;2.60;;
20417;SDS011;10368;51.436;6.774;2022-07-23T15:28:31;2.88;;;2.40;;
20417;SDS011;10368;51.436;6.774;2022-07-23T15:30:59;3.10;;;2.42;;
20417;SDS011;10368;51.436;6.774;2022-07-23T15:33:26;3.85;;;2.05;;
20417;SDS011;10368;51.436;6.774;2022-07-23T15:35:54;3.45;;;2.33;;
20417;SDS011;10368;51.436;6.774;2022-07-23T15:38:23;3.03;;;2.22;;
20417;SDS011;10368;51.436;6.774;2022-07-23T15:40:54;2.33;;;1.92;;
20417;SDS011;10368;51.436;6.774;2022-07-23T15:43:23;6.40;;;5.88;;
20417;SDS011;10368;51.436;6.774;2022-07-23T15:45:51;6.75;;;4.80;;
20417;SDS011;10368;51.436;6.774;2022-07-23T15:48:19;5.72;;;3.42;;
20417;SDS011;10368;51.436;6.774;2022-07-23T15:50:47;2.97;;;2.50;;
20417;SDS011;10368;51.436;6.774;2022-07-23T15:53:15;2.47;;;2.28;;